createdAt,value
2019-03-20T00:00:21.447Z,9.90
2019-03-20T00:02:50.598Z,10.75
2019-03-20T00:05:19.777Z,10.48
2019-03-20T00:07:48.927Z,9.30
2019-03-20T00:10:19.279Z,8.68
2019-03-20T00:12:48.528Z,9.15
2019-03-20T00:15:17.799Z,9.18
2019-03-20T00:17:47.034Z,8.75
2019-03-20T00:20:16.366Z,9.60
2019-03-20T00:22:45.595Z,8.48
2019-03-20T00:25:14.760Z,9.78
2019-03-20T00:27:43.998Z,9.25
2019-03-20T00:30:20.087Z,9.48
2019-03-20T00:32:49.258Z,8.60
2019-03-20T00:35:19.685Z,8.23
2019-03-20T00:37:48.935Z,9.78
2019-03-20T00:40:18.666Z,8.55
2019-03-20T00:42:47.875Z,8.73
2019-03-20T00:45:19.654Z,8.60
2019-03-20T00:47:48.826Z,8.35
2019-03-20T00:50:18.891Z,8.33
2019-03-20T00:52:48.069Z,9.63
2019-03-20T00:55:18.083Z,8.78
2019-03-20T00:57:47.774Z,8.40
2019-03-20T01:00:20.272Z,8.73
2019-03-20T01:02:49.436Z,8.50
2019-03-20T01:05:18.567Z,9.03
2019-03-20T01:07:47.785Z,9.13
2019-03-20T01:10:25.182Z,9.95
2019-03-20T01:12:54.410Z,9.50
2019-03-20T01:15:23.582Z,9.68
2019-03-20T01:17:52.756Z,8.88
2019-03-20T01:20:23.002Z,9.93
2019-03-20T01:22:52.216Z,9.30
2019-03-20T01:25:21.397Z,9.20
2019-03-20T01:27:50.631Z,9.18
2019-03-20T01:30:34.822Z,9.30
2019-03-20T01:33:12.010Z,8.18
2019-03-20T01:35:41.517Z,9.15
2019-03-20T01:38:11.144Z,9.58
2019-03-20T01:40:40.963Z,8.40
2019-03-20T01:43:10.391Z,9.90
2019-03-20T01:45:39.633Z,9.13
2019-03-20T01:48:08.798Z,9.35
2019-03-20T01:50:37.964Z,8.70
2019-03-20T01:53:07.195Z,8.75
2019-03-20T01:55:36.363Z,7.97
2019-03-20T01:58:05.514Z,9.33
2019-03-20T02:00:34.762Z,9.78
2019-03-20T02:03:03.965Z,8.88
2019-03-20T02:05:36.099Z,9.03
2019-03-20T02:08:04.050Z,8.50
2019-03-20T02:10:33.290Z,9.00
2019-03-20T02:13:02.531Z,8.40
2019-03-20T02:15:38.572Z,9.50
2019-03-20T02:18:02.768Z,9.35
2019-03-20T02:20:32.011Z,8.90
2019-03-20T02:23:01.204Z,9.83
2019-03-20T02:25:32.397Z,9.70
2019-03-20T02:28:01.428Z,9.48
2019-03-20T02:30:30.890Z,9.88
2019-03-20T02:33:00.131Z,9.35
2019-03-20T02:35:29.311Z,9.65
2019-03-20T02:37:58.577Z,9.10
2019-03-20T02:40:27.927Z,9.73
2019-03-20T02:42:57.142Z,8.98
2019-03-20T02:45:26.379Z,9.58
2019-03-20T02:47:55.676Z,9.20
2019-03-20T02:50:24.852Z,9.53
2019-03-20T02:52:54.096Z,9.70
2019-03-20T02:55:23.291Z,8.95
2019-03-20T02:57:52.459Z,9.95
2019-03-20T03:00:21.690Z,10.82
2019-03-20T03:02:50.887Z,10.10
2019-03-20T03:05:20.136Z,9.53
2019-03-20T03:07:49.281Z,9.85
2019-03-20T03:10:18.556Z,9.85
2019-03-20T03:12:47.754Z,9.08
2019-03-20T03:15:16.961Z,10.08
2019-03-20T03:17:46.184Z,9.70
2019-03-20T03:20:15.950Z,10.23
2019-03-20T03:22:45.128Z,9.80
2019-03-20T03:25:14.909Z,9.23
2019-03-20T03:27:44.144Z,9.98
2019-03-20T03:30:17.214Z,10.50
2019-03-20T03:32:46.714Z,9.83
2019-03-20T03:35:19.016Z,10.18
2019-03-20T03:37:46.949Z,11.15
2019-03-20T03:40:18.425Z,11.12
2019-03-20T03:42:47.672Z,10.03
2019-03-20T03:45:17.330Z,9.95
2019-03-20T03:47:46.534Z,11.28
2019-03-20T03:50:15.770Z,10.70
2019-03-20T03:52:45.011Z,10.98
2019-03-20T03:55:14.986Z,11.75
2019-03-20T03:57:44.465Z,12.13
2019-03-20T04:00:19.799Z,11.48
2019-03-20T04:02:48.976Z,11.40
2019-03-20T04:05:18.256Z,11.03
2019-03-20T04:07:47.518Z,10.60
2019-03-20T04:10:17.641Z,11.60
2019-03-20T04:12:47.941Z,10.63
2019-03-20T04:15:17.506Z,11.08
2019-03-20T04:17:46.810Z,11.40
2019-03-20T04:20:18.241Z,12.13
2019-03-20T04:22:47.484Z,12.03
2019-03-20T04:25:16.733Z,12.00
2019-03-20T04:27:46.085Z,11.80
2019-03-20T04:30:18.683Z,11.18
2019-03-20T04:32:47.980Z,11.70
2019-03-20T04:35:17.207Z,11.85
2019-03-20T04:37:46.565Z,12.18
2019-03-20T04:40:16.968Z,12.43
2019-03-20T04:42:46.159Z,13.08
2019-03-20T04:45:17.009Z,12.68
2019-03-20T04:47:46.189Z,12.95
2019-03-20T04:50:16.499Z,13.08
2019-03-20T04:52:45.688Z,13.45
2019-03-20T04:55:14.887Z,14.55
2019-03-20T04:57:45.857Z,12.80
2019-03-20T05:00:17.584Z,12.28
2019-03-20T05:02:46.737Z,12.15
2019-03-20T05:05:15.898Z,12.25
2019-03-20T05:07:45.066Z,11.85
2019-03-20T05:10:17.550Z,12.33
2019-03-20T05:12:46.769Z,12.73
2019-03-20T05:15:15.931Z,12.35
2019-03-20T05:17:45.116Z,13.80
2019-03-20T05:20:18.183Z,12.78
2019-03-20T05:22:47.395Z,13.10
2019-03-20T05:25:16.704Z,13.70
2019-03-20T05:27:45.939Z,11.65
2019-03-20T05:30:15.897Z,12.80
2019-03-20T05:32:45.058Z,14.25
2019-03-20T05:35:14.320Z,13.78
2019-03-20T05:37:43.481Z,13.78
2019-03-20T05:40:14.926Z,14.20
2019-03-20T05:42:44.199Z,13.72
2019-03-20T05:45:17.731Z,13.32
2019-03-20T05:47:47.032Z,13.18
2019-03-20T05:50:17.110Z,13.30
2019-03-20T05:52:46.297Z,13.20
2019-03-20T05:55:15.480Z,13.62
2019-03-20T05:57:44.704Z,13.10
2019-03-20T06:00:21.869Z,12.85
2019-03-20T06:02:52.110Z,12.98
2019-03-20T06:05:21.331Z,12.28
2019-03-20T06:07:51.760Z,12.35
2019-03-20T06:10:20.991Z,11.88
2019-03-20T06:12:50.161Z,11.70
2019-03-20T06:15:24.718Z,12.50
2019-03-20T06:17:52.646Z,11.63
2019-03-20T06:20:21.849Z,12.60
2019-03-20T06:22:51.090Z,12.60
2019-03-20T06:25:21.457Z,12.55
2019-03-20T06:27:52.888Z,12.40
2019-03-20T06:30:21.937Z,11.57
2019-03-20T06:32:51.134Z,12.18
2019-03-20T06:35:20.338Z,12.88
2019-03-20T06:37:49.555Z,11.73
2019-03-20T06:40:18.713Z,11.65
2019-03-20T06:42:48.188Z,12.73
2019-03-20T06:45:18.781Z,12.93
2019-03-20T06:47:47.949Z,12.00
2019-03-20T06:50:18.354Z,12.63
2019-03-20T06:52:47.550Z,11.88
2019-03-20T06:55:16.781Z,13.20
2019-03-20T06:57:46.036Z,13.93
2019-03-20T07:00:42.732Z,12.07
2019-03-20T07:03:25.660Z,12.55
2019-03-20T07:06:31.687Z,14.05
2019-03-20T07:09:22.361Z,12.60
2019-03-20T07:11:51.563Z,11.75
2019-03-20T07:14:21.996Z,13.32
2019-03-20T07:16:51.165Z,13.15
2019-03-20T07:19:20.336Z,12.07
2019-03-20T07:21:49.514Z,12.47
2019-03-20T07:24:20.723Z,12.98
2019-03-20T07:26:52.552Z,11.85
2019-03-20T07:29:21.781Z,13.35
2019-03-20T07:31:51.256Z,12.00
2019-03-20T07:34:20.549Z,11.90
2019-03-20T07:36:49.967Z,12.05
2019-03-20T07:39:19.267Z,12.15
2019-03-20T07:41:48.589Z,11.88
2019-03-20T07:44:17.925Z,12.53
2019-03-20T07:46:47.249Z,11.25
2019-03-20T07:49:17.759Z,11.85
2019-03-20T07:51:47.022Z,11.57
2019-03-20T07:54:16.185Z,11.55
2019-03-20T07:56:45.402Z,10.70
2019-03-20T07:59:14.570Z,10.75
2019-03-20T08:01:43.726Z,9.28
2019-03-20T08:04:13.869Z,9.48
2019-03-20T08:06:43.015Z,8.23
2019-03-20T08:09:12.207Z,8.40
2019-03-20T08:11:41.971Z,7.45
2019-03-20T08:14:11.463Z,7.30
2019-03-20T08:16:40.615Z,7.42
2019-03-20T08:19:09.825Z,6.03
2019-03-20T08:21:39.019Z,4.75
2019-03-20T08:24:08.220Z,4.53
2019-03-20T08:26:37.374Z,5.33
2019-03-20T08:29:06.531Z,5.72
2019-03-20T08:31:35.704Z,5.87
2019-03-20T08:34:04.872Z,5.65
2019-03-20T08:36:34.077Z,4.78
2019-03-20T08:39:03.492Z,4.47
2019-03-20T08:41:34.348Z,5.62
2019-03-20T08:44:03.641Z,5.20
2019-03-20T08:46:32.839Z,4.80
2019-03-20T08:49:02.259Z,4.80
2019-03-20T08:51:32.761Z,4.67
2019-03-20T08:54:02.024Z,3.95
2019-03-20T08:56:31.328Z,4.15
2019-03-20T08:59:00.869Z,4.55
2019-03-20T09:01:30.216Z,3.98
2019-03-20T09:03:59.548Z,3.50
2019-03-20T09:06:28.818Z,3.25
2019-03-20T09:08:58.240Z,2.60
2019-03-20T09:11:27.645Z,3.37
2019-03-20T09:13:56.997Z,3.20
2019-03-20T09:16:26.317Z,3.10
2019-03-20T09:18:55.525Z,2.42
2019-03-20T09:21:24.684Z,2.98
2019-03-20T09:23:53.844Z,2.60
2019-03-20T09:26:23.010Z,2.10
2019-03-20T09:28:52.197Z,2.65
2019-03-20T09:31:21.330Z,3.70
2019-03-20T09:33:50.598Z,2.10
2019-03-20T09:36:19.855Z,2.30
2019-03-20T09:38:49.095Z,2.25
2019-03-20T09:41:18.315Z,3.40
2019-03-20T09:43:47.525Z,2.83
2019-03-20T09:46:16.937Z,3.12
2019-03-20T09:48:46.119Z,4.00
2019-03-20T09:51:15.304Z,3.05
2019-03-20T09:53:44.644Z,2.40
2019-03-20T09:56:13.806Z,4.22
2019-03-20T09:58:42.985Z,2.47
2019-03-20T10:01:12.334Z,2.70
2019-03-20T10:03:41.814Z,2.92
2019-03-20T10:06:11.055Z,2.80
2019-03-20T10:08:40.327Z,2.27
2019-03-20T10:11:09.863Z,3.20
2019-03-20T10:13:39.016Z,2.50
2019-03-20T10:16:08.186Z,3.30
2019-03-20T10:18:37.441Z,2.40
2019-03-20T10:21:06.681Z,3.00
2019-03-20T10:23:35.986Z,3.22
2019-03-20T10:26:05.226Z,2.87
2019-03-20T10:28:34.490Z,2.85
2019-03-20T10:31:03.717Z,5.30
2019-03-20T10:33:32.906Z,2.92
2019-03-20T10:36:02.063Z,3.17
2019-03-20T10:38:31.239Z,3.05
2019-03-20T10:41:00.400Z,7.42
2019-03-20T10:43:29.560Z,3.20
2019-03-20T10:45:59.581Z,3.90
2019-03-20T10:48:28.961Z,3.00
2019-03-20T10:50:58.176Z,3.30
2019-03-20T10:53:27.400Z,4.40
2019-03-20T10:55:56.744Z,3.60
2019-03-20T10:58:26.021Z,4.42
2019-03-20T11:00:55.274Z,4.17
2019-03-20T11:03:24.515Z,3.62
2019-03-20T11:05:53.711Z,3.20
2019-03-20T11:08:22.923Z,3.40
2019-03-20T11:10:52.223Z,4.92
2019-03-20T11:13:21.595Z,5.55
2019-03-20T11:15:50.899Z,3.33
2019-03-20T11:18:20.201Z,3.87
2019-03-20T11:20:49.432Z,3.40
2019-03-20T11:23:18.597Z,4.62
2019-03-20T11:25:47.784Z,4.35
2019-03-20T11:28:17.039Z,4.00
2019-03-20T11:30:46.260Z,3.83
2019-03-20T11:33:15.531Z,4.47
2019-03-20T11:35:44.756Z,3.60
2019-03-20T11:38:13.911Z,3.33
2019-03-20T11:40:43.077Z,2.98
2019-03-20T11:43:12.236Z,4.47
2019-03-20T11:45:41.398Z,4.22
2019-03-20T11:48:10.654Z,3.58
2019-03-20T11:50:43.904Z,3.55
2019-03-20T11:55:42.112Z,4.28
2019-03-20T11:58:11.381Z,3.60
2019-03-20T12:00:40.598Z,4.05
2019-03-20T12:03:09.774Z,3.50
2019-03-20T12:05:38.935Z,3.62
2019-03-20T12:08:09.725Z,4.45
2019-03-20T12:10:38.901Z,4.75
2019-03-20T12:13:08.075Z,5.25
2019-03-20T12:15:37.406Z,3.95
2019-03-20T12:18:06.713Z,3.08
2019-03-20T12:20:36.003Z,3.85
2019-03-20T12:23:05.495Z,3.70
2019-03-20T12:25:39.050Z,3.00
2019-03-20T12:28:08.298Z,3.80
2019-03-20T12:30:38.491Z,4.22
2019-03-20T12:33:07.870Z,4.47
2019-03-20T12:35:41.662Z,3.77
2019-03-20T12:38:14.726Z,4.53
2019-03-20T12:40:41.777Z,3.60
2019-03-20T12:43:11.077Z,3.50
2019-03-20T12:45:40.680Z,4.05
2019-03-20T12:48:13.042Z,3.80
2019-03-20T12:50:42.398Z,4.17
2019-03-20T12:53:29.114Z,3.90
2019-03-20T12:55:58.396Z,4.72
2019-03-20T12:58:27.577Z,4.47
2019-03-20T13:00:56.806Z,4.75
2019-03-20T13:03:25.988Z,4.05
2019-03-20T13:05:56.240Z,4.60
2019-03-20T13:08:25.403Z,4.47
2019-03-20T13:10:54.632Z,4.40
2019-03-20T13:13:23.832Z,3.95
2019-03-20T13:15:52.992Z,3.52
2019-03-20T13:18:22.277Z,3.55
2019-03-20T13:20:51.506Z,4.17
2019-03-20T13:23:26.916Z,3.83
2019-03-20T13:25:56.067Z,4.03
2019-03-20T13:28:25.247Z,3.52
2019-03-20T13:30:57.714Z,3.90
2019-03-20T13:33:26.985Z,4.50
2019-03-20T13:35:56.329Z,4.03
2019-03-20T13:38:25.510Z,3.90
2019-03-20T13:40:54.682Z,3.90
2019-03-20T13:43:23.844Z,4.05
2019-03-20T13:45:53.126Z,4.95
2019-03-20T13:48:22.320Z,4.72
2019-03-20T13:50:51.573Z,4.33
2019-03-20T13:53:20.826Z,4.60
2019-03-20T13:55:50.142Z,4.03
2019-03-20T13:58:19.366Z,4.75
2019-03-20T14:00:48.675Z,4.42
2019-03-20T14:03:17.911Z,4.47
2019-03-20T14:05:47.311Z,3.92
2019-03-20T14:08:17.815Z,3.83
2019-03-20T14:10:50.755Z,3.67
2019-03-20T14:13:18.055Z,7.65
2019-03-20T14:15:47.235Z,3.92
2019-03-20T14:18:16.490Z,4.70
2019-03-20T14:20:47.326Z,4.60
2019-03-20T14:23:16.493Z,4.28
2019-03-20T14:25:45.734Z,4.33
2019-03-20T14:28:14.908Z,4.60
2019-03-20T14:30:44.081Z,3.87
2019-03-20T14:33:13.350Z,4.28
2019-03-20T14:35:42.571Z,4.30
2019-03-20T14:38:11.752Z,4.12
2019-03-20T14:40:40.915Z,4.47
2019-03-20T14:43:10.350Z,4.50
2019-03-20T14:45:39.872Z,5.10
2019-03-20T14:48:09.078Z,4.60
2019-03-20T14:50:38.309Z,4.42
2019-03-20T14:53:07.487Z,5.28
2019-03-20T14:55:36.717Z,4.70
2019-03-20T14:58:06.071Z,5.50
2019-03-20T15:00:35.334Z,4.85
2019-03-20T15:03:04.642Z,4.70
2019-03-20T15:05:34.200Z,4.65
2019-03-20T15:08:03.625Z,4.20
2019-03-20T15:10:33.374Z,5.28
2019-03-20T15:13:02.684Z,4.45
2019-03-20T15:15:47.188Z,5.35
2019-03-20T15:18:17.020Z,4.67
2019-03-20T15:20:46.736Z,4.85
2019-03-20T15:23:16.157Z,5.40
2019-03-20T15:25:45.381Z,5.05
2019-03-20T15:28:14.619Z,5.22
2019-03-20T15:30:43.806Z,4.85
2019-03-20T15:33:12.957Z,5.17
2019-03-20T15:35:42.135Z,5.87
2019-03-20T15:38:11.370Z,4.70
2019-03-20T15:40:40.548Z,5.53
2019-03-20T15:43:09.710Z,5.12
2019-03-20T15:45:38.967Z,4.97
2019-03-20T15:48:08.248Z,5.28
2019-03-20T15:50:37.458Z,4.65
2019-03-20T15:53:06.779Z,4.47
2019-03-20T15:55:41.359Z,5.15
2019-03-20T15:58:10.624Z,4.90
2019-03-20T16:00:39.900Z,5.80
2019-03-20T16:03:27.306Z,4.50
2019-03-20T16:05:56.450Z,4.95
2019-03-20T16:08:25.705Z,4.53
2019-03-20T16:10:54.875Z,5.47
2019-03-20T16:13:24.159Z,5.35
2019-03-20T16:15:53.340Z,5.10
2019-03-20T16:18:22.565Z,5.33
2019-03-20T16:20:51.769Z,4.87
2019-03-20T16:23:22.078Z,5.22
2019-03-20T16:25:51.242Z,4.78
2019-03-20T16:28:20.818Z,4.50
2019-03-20T16:30:50.024Z,5.78
2019-03-20T16:33:19.377Z,4.87
2019-03-20T16:35:48.549Z,5.20
2019-03-20T16:38:17.833Z,4.55
2019-03-20T16:40:47.420Z,5.08
2019-03-20T16:43:16.812Z,4.95
2019-03-20T16:45:46.201Z,4.67
2019-03-20T16:48:15.566Z,4.90
2019-03-20T16:50:44.815Z,4.45
2019-03-20T16:53:15.685Z,5.62
2019-03-20T16:55:44.874Z,4.30
2019-03-20T16:58:14.079Z,4.65
2019-03-20T17:00:44.399Z,4.45
2019-03-20T17:03:13.592Z,4.40
2019-03-20T17:05:42.794Z,5.42
2019-03-20T17:08:13.052Z,5.00
2019-03-20T17:10:43.354Z,6.17
2019-03-20T17:13:12.542Z,4.53
2019-03-20T17:15:44.012Z,5.00
2019-03-20T17:18:13.559Z,5.47
2019-03-20T17:20:42.942Z,4.78
2019-03-20T17:23:12.158Z,5.45
2019-03-20T17:25:41.326Z,5.47
2019-03-20T17:28:10.488Z,5.85
2019-03-20T17:30:41.315Z,6.30
2019-03-20T17:33:10.627Z,6.10
2019-03-20T17:35:39.784Z,5.58
2019-03-20T17:38:09.104Z,5.85
2019-03-20T17:40:38.254Z,5.72
2019-03-20T17:43:07.439Z,6.20
2019-03-20T17:45:36.710Z,5.53
2019-03-20T17:48:06.071Z,5.83
2019-03-20T17:50:35.496Z,5.20
2019-03-20T17:53:05.368Z,5.22
2019-03-20T17:55:34.658Z,5.65
2019-03-20T17:58:04.507Z,6.35
2019-03-20T18:00:38.383Z,6.97
2019-03-20T18:03:07.751Z,5.70
2019-03-20T18:05:36.984Z,7.28
2019-03-20T18:08:07.298Z,5.33
2019-03-20T18:10:37.625Z,5.87
2019-03-20T18:13:08.145Z,6.12
2019-03-20T18:15:37.404Z,6.25
2019-03-20T18:18:07.963Z,6.55
2019-03-20T18:20:37.889Z,7.42
2019-03-20T18:23:07.792Z,6.00
2019-03-20T18:25:37.060Z,6.03
2019-03-20T18:28:06.508Z,6.08
2019-03-20T18:30:41.021Z,7.22
2019-03-20T18:33:10.239Z,6.78
2019-03-20T18:35:39.464Z,6.47
2019-03-20T18:38:08.680Z,7.10
2019-03-20T18:40:37.980Z,7.70
2019-03-20T18:43:07.348Z,8.33
2019-03-20T18:45:36.847Z,6.47
2019-03-20T18:48:06.155Z,7.62
2019-03-20T18:50:35.431Z,7.05
2019-03-20T18:53:06.854Z,6.70
2019-03-20T18:55:36.246Z,7.30
2019-03-20T18:58:05.658Z,7.80
2019-03-20T19:00:35.559Z,6.95
2019-03-20T19:03:20.055Z,7.50
2019-03-20T19:05:52.323Z,7.47
2019-03-20T19:08:21.586Z,6.78
2019-03-20T19:10:50.973Z,6.78
2019-03-20T19:13:20.225Z,6.80
2019-03-20T19:15:49.454Z,7.90
2019-03-20T19:18:18.644Z,7.55
2019-03-20T19:20:47.865Z,7.40
2019-03-20T19:23:17.114Z,6.92
2019-03-20T19:25:46.370Z,7.53
2019-03-20T19:28:15.565Z,7.35
2019-03-20T19:30:44.978Z,7.28
2019-03-20T19:33:14.333Z,7.60
2019-03-20T19:35:43.633Z,6.97
2019-03-20T19:38:13.068Z,7.95
2019-03-20T19:40:42.416Z,7.08
2019-03-20T19:43:13.091Z,6.95
2019-03-20T19:45:42.391Z,7.75
2019-03-20T19:48:13.728Z,8.13
2019-03-20T19:50:42.465Z,8.23
2019-03-20T19:53:11.741Z,8.75
2019-03-20T19:55:40.926Z,9.70
2019-03-20T19:58:10.075Z,9.53
2019-03-20T20:00:39.374Z,9.38
2019-03-20T20:03:08.627Z,9.55
2019-03-20T20:05:37.927Z,10.03
2019-03-20T20:08:07.109Z,9.88
2019-03-20T20:10:36.338Z,10.00
2019-03-20T20:13:05.609Z,9.05
2019-03-20T20:15:35.541Z,9.55
2019-03-20T20:18:04.899Z,9.35
2019-03-20T20:20:36.457Z,9.73
2019-03-20T20:23:05.657Z,9.15
2019-03-20T20:25:34.976Z,10.18
2019-03-20T20:28:04.186Z,9.00
2019-03-20T20:30:33.456Z,10.35
2019-03-20T20:33:02.691Z,9.50
2019-03-20T20:35:32.035Z,10.70
2019-03-20T20:38:01.477Z,12.70
2019-03-20T20:40:31.480Z,10.58
2019-03-20T20:43:00.793Z,9.58
2019-03-20T20:45:30.006Z,10.75
2019-03-20T20:47:59.216Z,9.95
2019-03-20T20:50:28.424Z,10.48
2019-03-20T20:52:57.694Z,10.32
2019-03-20T20:55:27.052Z,10.40
2019-03-20T20:57:59.536Z,10.60
2019-03-20T21:00:28.847Z,10.82
2019-03-20T21:02:58.422Z,10.98
2019-03-20T21:05:27.876Z,9.70
2019-03-20T21:07:57.257Z,11.43
2019-03-20T21:10:26.678Z,12.78
2019-03-20T21:12:57.421Z,12.68
2019-03-20T21:15:35.037Z,11.08
2019-03-20T21:18:16.259Z,10.25
2019-03-20T21:20:47.368Z,10.88
2019-03-20T21:23:41.582Z,10.35
2019-03-20T21:26:28.601Z,10.88
2019-03-20T21:29:34.311Z,10.78
2019-03-20T21:32:13.044Z,11.48
2019-03-20T21:35:03.617Z,11.20
2019-03-20T21:37:51.356Z,10.95
2019-03-20T21:40:20.593Z,11.43
2019-03-20T21:43:26.242Z,11.10
2019-03-20T21:45:58.657Z,11.78
2019-03-20T21:48:27.897Z,11.15
2019-03-20T21:51:03.317Z,11.80
2019-03-20T21:54:04.661Z,12.30
2019-03-20T21:57:05.687Z,11.12
2019-03-20T21:59:59.494Z,11.35
2019-03-20T22:02:44.864Z,10.23
2019-03-20T22:05:32.162Z,11.97
2019-03-20T22:08:01.311Z,10.60
2019-03-20T22:10:50.020Z,10.25
2019-03-20T22:13:22.421Z,11.90
2019-03-20T22:16:10.350Z,11.40
2019-03-20T22:18:52.133Z,10.82
2019-03-20T22:21:30.270Z,10.82
2019-03-20T22:24:23.654Z,12.30
2019-03-20T22:29:29.199Z,10.45
2019-03-20T22:32:13.270Z,11.30
2019-03-20T22:34:54.734Z,10.60
2019-03-20T22:37:23.914Z,10.32
2019-03-20T22:40:14.410Z,10.63
2019-03-20T22:43:07.767Z,10.72
2019-03-20T22:48:35.678Z,10.60
2019-03-20T22:51:27.697Z,10.95
2019-03-20T22:54:00.265Z,11.15
2019-03-20T22:56:55.156Z,12.65
2019-03-20T22:59:24.343Z,10.48
2019-03-20T23:02:16.692Z,10.32
2019-03-20T23:04:51.810Z,10.28
2019-03-20T23:07:21.030Z,10.60
2019-03-20T23:09:50.270Z,10.25
2019-03-20T23:12:19.581Z,10.48
2019-03-20T23:14:48.804Z,11.33
2019-03-20T23:17:18.411Z,11.10
2019-03-20T23:19:48.224Z,10.60
2019-03-20T23:22:17.422Z,11.25
2019-03-20T23:24:46.915Z,10.43
2019-03-20T23:27:19.905Z,11.48
2019-03-20T23:32:18.780Z,11.00
2019-03-20T23:34:47.920Z,10.68
2019-03-20T23:37:17.119Z,12.03
2019-03-20T23:39:46.352Z,10.82
2019-03-20T23:42:15.594Z,11.15
2019-03-20T23:44:44.824Z,10.60
2019-03-20T23:47:14.002Z,12.10
2019-03-20T23:49:43.160Z,11.83
2019-03-20T23:52:12.470Z,11.55
2019-03-20T23:54:45.800Z,11.25
2019-03-20T23:57:15.645Z,11.83
2019-03-20T23:59:44.847Z,11.75
